Harbville, South Carolina
Current Conditions -  °F | °C
As of 12:53 PM on Thursday 29 Jan 2015 (Local Time) from KSAV Reporting Station
Overcast Overcast  
Wind Chill: 57°   Ceiling: 25000
Heat Index: 57°   Visibility: 10mi
Dew Point: 36°   Wind: 8mph
Humidity: 45%   Direction: 190°S
Pressure: 30.3"   Gusts: NA
Location:  32.2576°N, 81.057°W
Report Text: KSAV 291753Z 19007KT 10SM FEW020 OVC250 14/02 A3030 RMK AO2 SLP260 FU FEW020 NE T01390022 10144 21011 58029
Loading
Personal Weather Stations






























Interactive Weather Map New forecast layout! Learn more

10-Day Weather Forecast

Advertisements
Track Severe Weather on mobile